Station LDTM4 - 9087023 - Ludington, MI Image indicating link to RSS feed of recent meteorological observations for station LDTM4


Conditions at LDTM4 as of
(4:18 pm EDT)
2018 GMT on 04/17/2024:
     

Click on the graph icon in the table below to see a time series plot of the last five days of that observation.

5-day plot - Wind Direction Wind Direction (WDIR):SSW ( 210 deg true )
5-day plot - Wind Speed Wind Speed (WSPD): 14.0 kts
5-day plot - Wind Gust Wind Gust (GST): 21.0 kts
5-day plot - Air Temperature Air Temperature (ATMP): 52.3 °F
5-day plot - Dew Point Dew Point (DEWP): 48.2 °F
5-day plot - Wind Chill Wind Chill (CHILL): 47.5 °F
5-day plot - Wind Speed at 10 Meters Wind Speed at 10 meters (WSPD10M): 15.5 kts
5-day plot - Wind Speed at 20 Meters Wind Speed at 20 meters (WSPD20M): 15.5 kts
5-day plot -  Wind Speed, Wind Gust and Atmospheric Pressure Combined plot of Wind Speed, Gust, and Air Pressure
NOS Water Level Observation Network Water Level
Previous observations
TIME
(EDT)
5-day plot - Wind Direction
WDIR
 
5-day plot - Wind Speed
WSPD
kts
5-day plot - Wind Gust
GST
kts
5-day plot - Wave Height
WVHT
ft
5-day plot - Dominant Wave Period
DPD
sec
5-day plot - Average Wave Period
APD
sec
5-day plot - Mean Wave Direction
MWD
 
5-day plot - Atmospheric Pressure
PRES
in
5-day plot - Pressure Tendency
PTDY
in
5-day plot - Air Temperature
ATMP
°F
5-day plot - Water Temperature
WTMP
°F
5-day plot - Dew Point
DEWP
°F
5-day plot - Salinity
SAL
psu
5-day plot - Visibility
VIS
nmi
5-day plot - Tide (above MLLW)
TIDE
ft
2024-04-17 04:12 pmSSW 14.0 19.0------ 51.6- 47.7---
2024-04-17 04:06 pmSSW 15.0 20.0------ 50.9- 46.9---
2024-04-17 04:00 pmSSW 12.0 18.1------ 50.5- 46.6---
2024-04-17 03:54 pmSSW 15.0 18.1------ 50.5- 46.4---
2024-04-17 03:48 pmSSW 13.0 19.0------ 50.4- 46.0---
2024-04-17 03:42 pmSSW 12.0 19.0------ 50.5- 46.2---
2024-04-17 03:36 pmSSW 11.1 17.1------ 50.5- 46.2---
2024-04-17 03:30 pmSSW 13.0 19.0------ 50.5- 46.0---
2024-04-17 03:24 pm S 14.0 17.1------ 51.1- 46.4---
2024-04-17 03:18 pmSSW 13.0 15.9------ 51.1- 46.4---
2024-04-17 03:12 pmSSW 13.0 19.0------ 51.4- 46.6---
2024-04-17 03:06 pmSSW 14.0 19.0------ 52.2- 47.1---
2024-04-17 03:00 pmSSW 15.0 20.0------ 53.1- 48.0---
2024-04-17 02:54 pmSSW 13.0 19.0------ 53.1- 48.2---
2024-04-17 02:48 pmSSW 14.0 19.0------ 52.5- 47.8---
2024-04-17 02:42 pmSSW 13.0 17.1------ 52.5- 48.0---
2024-04-17 02:36 pmSSW 13.0 15.9------ 51.8- 47.3---
2024-04-17 02:30 pmSSW 12.0 17.1------ 51.8- 47.5---
2024-04-17 02:24 pmSSW 14.0 18.1------ 51.4- 46.9---
2024-04-17 02:18 pmSSW 12.0 17.1------ 52.0- 47.5---
2024-04-17 02:12 pm S 13.0 19.0------ 52.9- 48.2---
2024-04-17 02:06 pmSSW 12.0 15.9------ 54.3- 49.5---
2024-04-17 02:00 pm S 7.0 17.1------ 56.1- 51.6---
2024-04-17 01:54 pmSSW 11.1 14.0------ 56.7- 52.0---
2024-04-17 01:48 pm S 6.0 12.0------ 57.2- 53.1---
2024-04-17 01:42 pm S 7.0 9.9------ 57.0- 53.2---
2024-04-17 01:36 pm S 7.0 11.1------ 56.7- 53.1---
2024-04-17 01:30 pm S 8.0 9.9------ 56.3- 52.9---
2024-04-17 01:24 pm S 8.0 12.0------ 56.1- 52.9---
2024-04-17 01:18 pmSSW 8.9 11.1------ 56.1- 52.9---
2024-04-17 01:12 pmSSW 8.0 9.9------ 56.3- 53.1---
2024-04-17 01:06 pmSSW 7.0 9.9------ 56.5- 53.2---
2024-04-17 01:00 pm S 4.1 5.1------ 56.8- 53.8---
2024-04-17 12:54 pmSSE 1.9 5.1------ 57.0- 54.1---
2024-04-17 12:48 pm SE 4.1 6.0------ 56.7- 53.6---
2024-04-17 12:42 pm S 4.1 8.0------ 56.5- 53.4---
2024-04-17 12:36 pm S 5.1 7.0------ 56.7- 53.4---
2024-04-17 12:30 pm SE 4.1 8.9------ 56.7- 53.4---
2024-04-17 12:24 pmSSE 5.1 7.0------ 56.5- 53.1---
2024-04-17 12:18 pm SE 6.0 8.9------ 56.5- 53.1---
2024-04-17 12:12 pm SE 6.0 11.1------ 56.5- 52.9---
2024-04-17 12:06 pm SE 6.0 11.1------ 55.9- 52.0---
2024-04-17 12:00 pm SE 7.0 9.9------ 55.8- 51.6---
2024-04-17 11:54 am SE 8.0 17.1------ 55.8- 51.4---
2024-04-17 11:48 amESE 6.0 11.1------ 54.9- 50.5---
2024-04-17 11:42 am S 5.1 9.9------ 55.2- 50.4---
2024-04-17 11:36 am SE 11.1 18.1------ 55.4- 50.4---
2024-04-17 11:30 amESE 11.1 17.1------ 55.6- 50.5---
2024-04-17 11:24 amESE 9.9 18.1------ 55.8- 50.9---
2024-04-17 11:18 amESE 12.0 18.1------ 55.4- 50.4---
2024-04-17 11:12 amESE 11.1 15.9------ 55.6- 50.4---
2024-04-17 11:06 amESE 11.1 17.1------ 55.6- 50.4---
2024-04-17 11:00 amESE 12.0 18.1------ 55.6- 50.2---
2024-04-17 10:54 am SE 11.1 17.1------ 55.8- 50.5---
2024-04-17 10:48 amESE 8.9 15.0------ 55.4- 50.4---
2024-04-17 10:42 amESE 8.9 17.1------ 54.7- 49.5---
2024-04-17 10:36 amESE 8.9 15.0------ 54.5- 49.1---
2024-04-17 10:30 amESE 8.0 15.9------ 54.3- 48.7---
2024-04-17 10:24 amESE 11.1 15.0------ 54.7- 48.2---
2024-04-17 10:18 am E 9.9 17.1------ 54.9- 48.2---
2024-04-17 10:12 am E 11.1 17.1------ 54.7- 47.8---
2024-04-17 10:06 amESE 11.1 17.1------ 54.5- 47.3---
2024-04-17 10:00 am E 8.9 15.9------ 54.1- 46.9---
2024-04-17 09:54 amESE 11.1 17.1------ 54.0- 46.8---
2024-04-17 09:48 am E 9.9 17.1------ 53.8- 46.6---
2024-04-17 09:42 am E 9.9 15.0------ 53.6- 46.2---
2024-04-17 09:36 amESE 8.9 14.0------ 53.4- 46.0---
2024-04-17 09:30 am E 11.1 18.1------ 53.1- 45.5---
2024-04-17 09:24 am E 11.1 18.1------ 53.1- 45.5---
2024-04-17 09:18 am E 12.0 15.0------ 53.1- 45.5---
2024-04-17 09:12 am E 8.9 15.9------ 53.1- 45.7---
2024-04-17 09:06 amESE 13.0 20.0------ 52.9- 45.5---
2024-04-17 09:00 amESE 13.0 18.1------ 52.5- 45.3---
2024-04-17 08:54 amESE 9.9 18.1------ 52.3- 45.5---
2024-04-17 08:48 am E 9.9 15.0------ 52.0- 45.3---
2024-04-17 08:42 am E 11.1 18.1------ 51.8- 45.1---
2024-04-17 08:36 am E 8.9 20.0------ 51.6- 45.1---
2024-04-17 08:30 amESE 9.9 17.1------ 51.4- 45.1---
2024-04-17 08:24 am E 11.1 18.1------ 51.1- 44.8---
2024-04-17 08:18 am E 12.0 21.0------ 51.1- 44.8---
2024-04-17 08:12 am E 12.0 17.1------ 51.1- 45.0---
2024-04-17 08:06 am E 12.0 18.1------ 50.9- 45.0---
2024-04-17 08:00 am E 8.9 18.1------ 50.7- 45.0---
2024-04-17 07:54 amESE 13.0 20.0------ 50.5- 44.6---
2024-04-17 07:48 amESE 12.0 18.1------ 50.2- 44.6---
2024-04-17 07:42 amESE 8.0 13.0------ 49.8- 44.2---
2024-04-17 07:36 am E 9.9 15.0------ 49.6- 44.2---
2024-04-17 07:30 am E 9.9 15.9------ 49.8- 44.4---
2024-04-17 07:24 am E 11.1 20.0------ 49.5- 44.2---
2024-04-17 07:18 am E 11.1 18.1------------
2024-04-17 07:12 am E 11.1 21.0------ 48.9- 44.2---
2024-04-17 07:06 am E 9.9 14.0------ 48.6- 44.2---
2024-04-17 07:00 am E 11.1 15.0------ 48.0- 43.7---
2024-04-17 06:54 am E 13.0 19.0------ 48.0- 43.5---
2024-04-17 06:48 am E 12.0 19.0------ 48.0- 43.5---
2024-04-17 06:42 amESE 9.9 19.0------ 48.2- 43.7---
2024-04-17 06:36 am E 9.9 19.0------ 47.7- 43.5---
2024-04-17 06:30 am E 13.0 21.0------ 47.8- 43.9---
2024-04-17 06:24 amESE 12.0 21.0------ 47.5- 43.5---
2024-04-17 06:18 amESE 12.0 20.0------ 47.5- 43.5---
2024-04-17 06:12 am E 15.0 22.0------ 47.8- 43.7---
2024-04-17 06:06 amESE 13.0 20.0------ 47.3- 43.3---
2024-04-17 06:00 am E 8.9 13.0------ 47.1- 43.0---
2024-04-17 05:54 am E 8.9 13.0------ 46.9- 42.8---
2024-04-17 05:48 am E 9.9 15.9------ 47.3- 43.0---
2024-04-17 05:42 am E 9.9 13.0------ 47.3- 42.8---
2024-04-17 05:36 am E 8.9 13.0------ 47.5- 43.0---
2024-04-17 05:30 am E 8.9 15.0------ 47.7- 43.0---
2024-04-17 05:24 am E 8.0 14.0------ 47.7- 43.0---
2024-04-17 05:18 am E 9.9 15.0------ 47.8- 43.2---
2024-04-17 05:12 am E 8.9 13.0------ 47.8- 43.3---
2024-04-17 05:06 am E 9.9 15.0------ 48.0- 43.7---
2024-04-17 05:00 am E 8.9 15.9------ 48.0- 44.1---
2024-04-17 04:54 am E 9.9 17.1------ 48.2- 44.8---
2024-04-17 04:48 am E 11.1 14.0------ 48.4- 45.5---
2024-04-17 04:42 am E 8.9 13.0------ 47.7- 45.3---
2024-04-17 04:36 am E 11.1 17.1------ 47.5- 45.5---
2024-04-17 04:30 am E 11.1 14.0------ 48.2- 46.0---
2024-04-17 04:24 am E 8.0 12.0------ 47.5- 45.3---
2024-04-17 04:18 am E 9.9 12.0------ 47.1- 45.0---
2024-04-17 04:12 am E 8.0 8.9------ 47.1- 44.4---
2024-04-17 04:06 am SE 1.9 2.9------ 48.9- 43.5---
2024-04-17 04:00 am NW 1.9 2.9------ 48.9- 42.3---
2024-04-17 03:54 am- 0.0 6.0------ 49.5- 41.7---
2024-04-17 03:48 am E 5.1 7.0------ 49.8- 41.4---
2024-04-17 03:42 am E 5.1 8.0------ 49.3- 41.4---
2024-04-17 03:36 amENE 6.0 8.0------ 49.6- 40.8---
2024-04-17 03:30 amNNE 2.9 8.9------ 49.3- 40.8---
2024-04-17 03:24 amESE 8.0 9.9------ 52.3- 38.7---
2024-04-17 03:18 am W 8.0 12.0------------
2024-04-17 03:12 am NE 1.9 8.9------ 51.3- 38.7---
2024-04-17 03:06 amESE 6.0 12.0------ 51.1- 38.5---
2024-04-17 03:00 am E 7.0 9.9------ 50.7- 38.5---
2024-04-17 02:54 amWNW 5.1 13.0------ 50.4- 38.1---
2024-04-17 02:48 am W 5.1 8.9------ 52.0- 37.9---
2024-04-17 02:42 am W 8.0 11.1------ 50.2- 37.6---
2024-04-17 02:36 amESE 5.1 15.0------ 51.6- 37.9---
2024-04-17 02:30 am E 9.9 17.1------ 51.1- 37.8---
2024-04-17 02:24 am E 8.9 20.0------ 50.9- 37.8---
2024-04-17 02:18 am E 11.1 19.0------ 51.1- 37.9---
2024-04-17 02:12 am E 12.0 19.0------ 50.9- 38.1---
2024-04-17 02:06 am E 14.0 21.0------ 50.7- 37.8---
2024-04-17 02:00 am E 13.0 17.1------ 50.9- 37.8---
2024-04-17 01:54 am E 11.1 19.0------ 50.7- 37.6---
2024-04-17 01:48 am E 12.0 17.1------ 51.3- 37.0---
2024-04-17 01:42 am E 11.1 15.9------ 51.6- 36.5---
2024-04-17 01:36 am E 11.1 18.1------ 52.2- 36.0---
2024-04-17 01:30 amESE 12.0 17.1------ 52.7- 35.6---
2024-04-17 01:24 amESE 9.9 18.1------ 53.2- 35.1---
2024-04-17 01:18 amESE 11.1 22.0------ 54.1- 34.2---
2024-04-17 01:12 am E 12.0 22.9------ 55.2- 32.9---
2024-04-17 01:06 am E 11.1 19.0------ 55.2- 32.5---
2024-04-17 01:00 am E 12.0 19.0------ 55.2- 32.2---
2024-04-17 12:54 amESE 9.9 19.0------ 55.2- 31.8---
2024-04-17 12:48 amESE 12.0 22.0------ 55.4- 31.5---
2024-04-17 12:42 am E 15.0 22.0------ 55.4- 31.6---
2024-04-17 12:36 am E 11.1 22.0------ 55.2- 31.5---
2024-04-17 12:30 amESE 12.0 19.0------ 55.4- 31.6---
2024-04-17 12:24 amESE 15.0 21.0------ 55.4- 31.5---
2024-04-17 12:18 amESE 13.0 18.1------------
2024-04-17 12:12 am E 12.0 26.0------ 56.3- 30.6---
2024-04-17 12:06 amESE 14.0 21.0------ 56.5- 30.9---
2024-04-17 12:00 amESE 17.1 26.0------ 56.7- 30.9---
2024-04-16 11:54 pm E 13.0 24.1------ 56.7- 31.3---
2024-04-16 11:48 pm E 15.0 22.0------ 56.7- 31.5---
2024-04-16 11:42 pm E 13.0 20.0------ 56.7- 31.6---
2024-04-16 11:36 pmESE 11.1 21.0------ 56.7- 31.6---
2024-04-16 11:30 pm E 14.0 20.0------ 56.7- 31.6---
2024-04-16 11:24 pm E 12.0 20.0------ 56.8- 32.2---
2024-04-16 11:18 pmESE 13.0 21.0------ 56.8- 32.5---
2024-04-16 11:12 pm E 12.0 18.1------ 56.8- 32.7---
2024-04-16 11:06 pm E 13.0 24.1------ 57.4- 32.2---
2024-04-16 11:00 pm E 13.0 22.0------ 57.4- 32.4---
2024-04-16 10:54 pm E 11.1 19.0------ 57.4- 32.5---
2024-04-16 10:48 pm E 12.0 22.0------ 57.4- 32.5---
2024-04-16 10:42 pm E 13.0 21.0------ 57.4- 32.9---
2024-04-16 10:36 pm E 14.0 25.1------ 57.4- 32.9---
2024-04-16 10:30 pm E 14.0 21.0------ 57.4- 33.4---
2024-04-16 10:24 pm E 14.0 21.0------ 57.4- 33.8---
2024-04-16 10:12 pm E 13.0 21.0------ 57.6- 34.2---
2024-04-16 10:06 pm E 15.0 22.9------ 57.6- 34.2---
2024-04-16 10:00 pm E 13.0 25.1------ 57.4- 34.2---
2024-04-16 09:54 pm E 14.0 22.0------ 57.6- 34.2---
2024-04-16 09:48 pm E 17.1 22.9------ 57.7- 34.5---
2024-04-16 09:42 pm E 15.9 29.9------ 57.7- 35.1---
2024-04-16 09:36 pm E 13.0 22.9------ 57.7- 36.5---
2024-04-16 09:30 pm E 15.9 22.9------ 58.1- 36.9---
2024-04-16 09:24 pm E 13.0 20.0------ 58.3- 36.7---
2024-04-16 09:18 pm E 17.1 26.0------------
2024-04-16 09:12 pm E 15.0 24.1------ 58.8- 37.2---
2024-04-16 09:06 pm E 14.0 24.1------ 58.8- 37.8---
2024-04-16 09:00 pm E 13.0 22.0------ 58.8- 37.9---
2024-04-16 08:54 pm E 13.0 21.0------ 59.2- 38.1---
2024-04-16 08:48 pm E 12.0 22.9------ 60.1- 37.2---
2024-04-16 08:42 pm E 12.0 17.1------ 60.6- 37.2---
2024-04-16 08:36 pm E 11.1 19.0------ 60.8- 37.4---
2024-04-16 08:30 pm E 11.1 20.0------ 61.0- 37.0---
2024-04-16 08:24 pmESE 13.0 20.0------ 62.2- 36.7---
2024-04-16 08:18 pmESE 11.1 18.1------ 62.1- 36.3---
2024-04-16 08:12 pm E 12.0 21.0------ 62.6- 36.0---
2024-04-16 08:06 pm E 12.0 21.0------ 63.0- 35.4---
2024-04-16 08:00 pm E 13.0 20.0------ 64.2- 33.3---
2024-04-16 07:54 pm E 12.0 19.0------ 64.0- 33.1---
2024-04-16 07:48 pm E 15.9 22.0------------
2024-04-16 07:42 pm E 11.1 21.0------ 64.2- 32.7---
2024-04-16 07:36 pm E 12.0 17.1------ 64.4- 32.5---
2024-04-16 07:30 pm E 15.9 21.0------ 64.6- 32.2---
2024-04-16 07:24 pm E 14.0 22.0------ 64.9- 31.8---
2024-04-16 07:18 pm E 15.9 22.9------ 64.9- 31.5---
2024-04-16 07:12 pm E 11.1 22.0------ 65.1- 31.1---
2024-04-16 07:06 pm E 13.0 20.0------ 65.5- 30.4---
2024-04-16 07:00 pm E 13.0 22.9------ 65.8- 30.2---
2024-04-16 06:54 pm E 11.1 24.1------ 65.8- 29.8---
2024-04-16 06:48 pm E 12.0 19.0------ 66.0- 29.8---
2024-04-16 06:42 pm E 13.0 22.0------ 66.2- 29.5---
2024-04-16 06:36 pm E 15.0 22.0------ 66.6- 29.5---
2024-04-16 06:30 pm E 15.0 22.0------------
2024-04-16 06:24 pm E 15.0 25.1------------
2024-04-16 06:18 pm E 15.0 22.9------------
2024-04-16 06:12 pm E 15.9 25.1------------
2024-04-16 06:06 pm E 9.9 21.0------------
2024-04-16 06:00 pm E 15.9 21.0------ 67.6- 30.0---
2024-04-16 05:54 pm E 12.0 24.1------ 67.5- 30.6---
2024-04-16 05:48 pm E 12.0 19.0------ 67.6- 30.4---
2024-04-16 05:42 pm E 15.9 22.9------ 67.6- 30.0---
2024-04-16 05:36 pm E 11.1 21.0------ 68.2- 30.7---
2024-04-16 05:30 pm E 11.1 19.0------ 68.0- 31.3---
2024-04-16 05:24 pm E 13.0 19.0------ 68.2- 30.9---
2024-04-16 05:18 pm E 15.0 22.9------ 68.4- 31.1---
2024-04-16 05:12 pm E 12.0 19.0------ 68.7- 31.1---
2024-04-16 05:06 pm E 14.0 21.0------ 69.1- 31.1---
2024-04-16 05:00 pm E 12.0 18.1------ 69.1- 31.5---
2024-04-16 04:54 pm E 12.0 21.0------ 68.9- 31.5---
2024-04-16 04:48 pmESE 9.9 17.1------ 68.9- 31.3---
2024-04-16 04:42 pm E 13.0 22.0------ 68.5- 31.1---
2024-04-16 04:36 pm E 15.0 24.1------ 68.5- 30.6---
2024-04-16 04:30 pm E 12.0 19.0------ 68.9- 31.5---
2024-04-16 04:24 pm E 13.0 22.0------ 68.9- 32.0---
2024-04-16 04:18 pm E 12.0 18.1------ 69.1- 32.2---
2024-04-16 04:12 pm E 12.0 19.0------ 68.7- 32.4---
2024-04-16 04:06 pmENE 14.0 20.0------ 68.5- 32.2---
2024-04-16 04:00 pm E 13.0 18.1------ 68.5- 32.2---
2024-04-16 03:54 pm E 12.0 17.1------ 68.9- 31.3---